createdAt,value
2023-05-20T00:00:50.592Z,7.83
2023-05-20T00:03:37.940Z,7.17
2023-05-20T00:06:25.276Z,7.70
2023-05-20T00:09:12.450Z,7.40
2023-05-20T00:12:00.054Z,7.57
2023-05-20T00:14:47.250Z,7.13
2023-05-20T00:17:34.545Z,7.60
2023-05-20T00:20:23.095Z,7.10
2023-05-20T00:23:10.378Z,7.57
2023-05-20T00:26:00.862Z,7.40
2023-05-20T00:28:48.785Z,7.10
2023-05-20T00:31:36.158Z,7.20
2023-05-20T00:34:23.405Z,7.07
2023-05-20T00:37:16.668Z,6.90
2023-05-20T00:40:04.198Z,7.37
2023-05-20T00:42:53.569Z,7.47
2023-05-20T00:45:43.369Z,7.10
2023-05-20T00:48:51.269Z,7.27
2023-05-20T00:51:38.721Z,7.50
2023-05-20T00:54:26.208Z,6.97
2023-05-20T00:57:14.089Z,6.70
2023-05-20T01:00:01.571Z,7.10
2023-05-20T01:02:52.216Z,7.03
2023-05-20T01:05:42.246Z,7.37
2023-05-20T01:08:31.242Z,7.30
2023-05-20T01:11:28.269Z,8.10
2023-05-20T01:14:17.803Z,7.07
2023-05-20T01:17:10.889Z,7.70
2023-05-20T01:19:59.810Z,7.07
2023-05-20T01:22:52.805Z,7.13
2023-05-20T01:25:42.880Z,6.73
2023-05-20T01:28:30.327Z,7.37
2023-05-20T01:31:23.797Z,7.07
2023-05-20T01:34:11.719Z,7.00
2023-05-20T01:36:58.928Z,6.73
2023-05-20T01:39:47.603Z,6.50
2023-05-20T01:42:36.249Z,6.53
2023-05-20T01:45:25.371Z,6.87
2023-05-20T01:48:13.077Z,6.60
2023-05-20T01:51:00.489Z,6.67
2023-05-20T01:53:47.779Z,6.20
2023-05-20T01:56:34.919Z,6.53
2023-05-20T01:59:22.189Z,6.13
2023-05-20T02:02:11.195Z,6.47
2023-05-20T02:04:58.492Z,6.27
2023-05-20T02:07:45.884Z,6.13
2023-05-20T02:10:33.296Z,6.20
2023-05-20T02:13:20.568Z,6.60
2023-05-20T02:16:07.967Z,5.63
2023-05-20T02:18:55.135Z,6.10
2023-05-20T02:21:42.658Z,6.23
2023-05-20T02:24:29.752Z,6.37
2023-05-20T02:27:17.174Z,6.00
2023-05-20T02:30:04.784Z,6.10
2023-05-20T02:32:52.247Z,5.60
2023-05-20T02:35:40.005Z,5.50
2023-05-20T02:38:27.184Z,6.00
2023-05-20T02:41:14.663Z,5.60
2023-05-20T02:44:01.803Z,5.63
2023-05-20T02:46:48.976Z,5.27
2023-05-20T02:49:36.112Z,5.27
2023-05-20T02:52:23.353Z,5.13
2023-05-20T02:55:10.677Z,5.60
2023-05-20T02:57:57.833Z,5.40
2023-05-20T03:00:45.184Z,5.13
2023-05-20T03:03:32.361Z,5.43
2023-05-20T03:06:19.549Z,5.33
2023-05-20T03:09:06.708Z,5.57
2023-05-20T03:11:53.886Z,5.80
2023-05-20T03:14:41.061Z,5.20
2023-05-20T03:17:28.294Z,5.30
2023-05-20T03:20:16.745Z,4.97
2023-05-20T03:23:04.772Z,5.47
2023-05-20T03:25:52.184Z,4.90
2023-05-20T03:28:39.374Z,5.20
2023-05-20T03:31:26.565Z,5.60
2023-05-20T03:34:13.789Z,4.93
2023-05-20T03:37:01.351Z,5.20
2023-05-20T03:39:48.526Z,5.17
2023-05-20T03:42:36.026Z,5.17
2023-05-20T03:45:23.429Z,5.20
2023-05-20T03:48:10.873Z,4.87
2023-05-20T03:50:58.016Z,4.97
2023-05-20T03:53:45.178Z,5.23
2023-05-20T03:56:32.307Z,5.30
2023-05-20T03:59:19.944Z,5.13
2023-05-20T04:02:07.262Z,5.33
2023-05-20T04:04:57.799Z,4.97
2023-05-20T04:07:45.015Z,5.30
2023-05-20T04:10:33.488Z,5.33
2023-05-20T04:13:20.678Z,4.70
2023-05-20T04:16:08.049Z,5.20
2023-05-20T04:18:55.783Z,4.97
2023-05-20T04:21:44.170Z,4.57
2023-05-20T04:24:31.300Z,4.97
2023-05-20T04:27:18.525Z,4.70
2023-05-20T04:30:06.926Z,4.70
2023-05-20T04:32:54.677Z,4.63
2023-05-20T04:35:42.906Z,4.73
2023-05-20T04:38:30.494Z,4.40
2023-05-20T04:41:17.788Z,4.10
2023-05-20T04:44:06.420Z,4.10
2023-05-20T04:46:53.556Z,4.50
2023-05-20T04:49:41.084Z,4.30
2023-05-20T04:52:28.228Z,4.03
2023-05-20T04:55:16.145Z,4.30
2023-05-20T04:58:04.035Z,4.37
2023-05-20T05:00:52.405Z,4.53
2023-05-20T05:03:39.576Z,4.10
2023-05-20T05:06:26.831Z,4.23
2023-05-20T05:09:13.942Z,4.07
2023-05-20T05:12:01.410Z,4.30
2023-05-20T05:14:48.654Z,3.97
2023-05-20T05:17:35.935Z,3.80
2023-05-20T05:20:23.192Z,4.00
2023-05-20T05:23:10.629Z,3.83
2023-05-20T05:25:57.923Z,3.90
2023-05-20T05:28:45.404Z,3.87
2023-05-20T05:31:32.578Z,3.90
2023-05-20T05:34:19.724Z,3.60
2023-05-20T05:37:06.866Z,3.33
2023-05-20T05:39:54.022Z,3.33
2023-05-20T05:42:41.245Z,3.63
2023-05-20T05:45:28.456Z,3.40
2023-05-20T05:48:15.777Z,3.67
2023-05-20T05:51:02.993Z,4.13
2023-05-20T05:53:50.209Z,3.63
2023-05-20T05:56:37.370Z,3.90
2023-05-20T05:59:24.591Z,3.80
2023-05-20T06:02:11.833Z,3.60
2023-05-20T06:04:58.987Z,3.40
2023-05-20T06:07:46.161Z,3.53
2023-05-20T06:10:33.320Z,3.80
2023-05-20T06:13:20.881Z,3.80
2023-05-20T06:16:08.167Z,3.90
2023-05-20T06:18:59.211Z,3.87
2023-05-20T06:21:47.976Z,3.60
2023-05-20T06:24:35.091Z,3.90
2023-05-20T06:27:22.359Z,3.60
2023-05-20T06:30:09.914Z,3.80
2023-05-20T06:32:57.223Z,3.80
2023-05-20T06:35:44.762Z,3.83
2023-05-20T06:38:32.002Z,3.93
2023-05-20T06:41:19.197Z,3.60
2023-05-20T06:44:07.400Z,3.97
2023-05-20T06:46:54.756Z,3.57
2023-05-20T06:49:45.047Z,3.70
2023-05-20T06:52:34.464Z,3.50
2023-05-20T06:55:21.699Z,3.50
2023-05-20T06:58:08.919Z,3.83
2023-05-20T07:00:56.054Z,3.87
2023-05-20T07:03:44.373Z,3.20
2023-05-20T07:06:31.697Z,3.77
2023-05-20T07:09:18.900Z,3.80
2023-05-20T07:12:06.519Z,3.50
2023-05-20T07:14:53.629Z,3.60
2023-05-20T07:17:41.079Z,3.40
2023-05-20T07:20:28.810Z,3.80
2023-05-20T07:23:15.990Z,3.47
2023-05-20T07:26:03.706Z,3.70
2023-05-20T07:28:51.669Z,3.50
2023-05-20T07:31:38.955Z,3.70
2023-05-20T07:34:26.176Z,4.00
2023-05-20T07:37:13.408Z,3.70
2023-05-20T07:40:03.030Z,3.87
2023-05-20T07:42:50.198Z,3.83
2023-05-20T07:45:37.837Z,3.53
2023-05-20T07:48:25.422Z,3.30
2023-05-20T07:51:12.616Z,3.47
2023-05-20T07:54:00.149Z,3.70
2023-05-20T07:56:47.422Z,3.43
2023-05-20T07:59:34.627Z,3.43
2023-05-20T08:02:22.056Z,3.47
2023-05-20T08:05:09.521Z,3.50
2023-05-20T08:07:56.851Z,3.80
2023-05-20T08:10:44.092Z,3.30
2023-05-20T08:13:32.995Z,3.90
2023-05-20T08:16:22.079Z,3.50
2023-05-20T08:19:09.430Z,4.20
2023-05-20T08:21:56.767Z,3.90
2023-05-20T08:24:43.976Z,4.30
2023-05-20T08:27:31.182Z,3.92
2023-05-20T08:30:18.520Z,3.75
2023-05-20T08:33:05.975Z,4.45
2023-05-20T08:35:53.432Z,3.70
2023-05-20T08:38:40.833Z,3.80
2023-05-20T08:41:28.015Z,3.78
2023-05-20T08:44:18.301Z,3.80
2023-05-20T08:47:06.272Z,3.42
2023-05-20T08:49:53.517Z,3.60
2023-05-20T08:52:45.425Z,3.67
2023-05-20T08:55:43.836Z,3.60
2023-05-20T08:58:32.820Z,3.90
2023-05-20T09:01:24.967Z,3.63
2023-05-20T09:04:12.687Z,3.97
2023-05-20T09:07:03.901Z,3.60
2023-05-20T09:09:51.166Z,3.55
2023-05-20T09:12:41.415Z,3.53
2023-05-20T09:15:30.358Z,3.88
2023-05-20T09:18:17.602Z,3.90
2023-05-20T09:21:07.167Z,4.10
2023-05-20T09:23:57.407Z,4.03
2023-05-20T09:26:45.196Z,4.10
2023-05-20T09:29:34.148Z,4.38
2023-05-20T09:32:24.327Z,4.38
2023-05-20T09:35:15.636Z,5.47
2023-05-20T09:38:04.884Z,5.55
2023-05-20T09:40:52.420Z,4.47
2023-05-20T09:43:50.742Z,4.80
2023-05-20T09:46:40.074Z,4.70
2023-05-20T09:49:31.340Z,4.82
2023-05-20T09:52:21.334Z,4.72
2023-05-20T09:55:13.154Z,4.85
2023-05-20T09:58:03.330Z,5.25
2023-05-20T10:00:51.201Z,4.95
2023-05-20T10:03:39.694Z,4.65
2023-05-20T10:07:06.642Z,5.25
2023-05-20T10:10:26.401Z,5.20
2023-05-20T10:13:50.424Z,5.25
2023-05-20T10:16:56.133Z,5.15
2023-05-20T10:19:43.510Z,5.75
2023-05-20T10:22:31.837Z,5.03
2023-05-20T10:25:28.508Z,4.68
2023-05-20T10:28:28.144Z,5.80
2023-05-20T10:31:37.860Z,5.25
2023-05-20T10:34:25.406Z,5.05
2023-05-20T10:37:23.671Z,5.15
2023-05-20T10:40:13.563Z,5.05
2023-05-20T10:43:13.779Z,5.07
2023-05-20T10:46:04.834Z,5.20
2023-05-20T10:48:52.690Z,4.85
2023-05-20T10:51:42.181Z,4.72
2023-05-20T10:54:29.995Z,4.70
2023-05-20T10:57:24.784Z,5.30
2023-05-20T11:00:16.894Z,5.10
2023-05-20T11:03:07.597Z,5.18
2023-05-20T11:05:57.946Z,5.18
2023-05-20T11:08:46.212Z,4.90
2023-05-20T11:11:33.684Z,5.03
2023-05-20T11:14:22.007Z,5.20
2023-05-20T11:17:09.684Z,5.03
2023-05-20T11:19:56.967Z,4.93
2023-05-20T11:22:45.279Z,5.18
2023-05-20T11:25:33.734Z,4.90
2023-05-20T11:28:24.329Z,5.22
2023-05-20T11:31:11.572Z,5.20
2023-05-20T11:34:02.514Z,5.22
2023-05-20T11:36:56.644Z,5.40
2023-05-20T11:39:44.481Z,4.82
2023-05-20T11:42:32.890Z,5.28
2023-05-20T11:45:20.094Z,5.40
2023-05-20T11:48:08.042Z,5.40
2023-05-20T11:50:56.504Z,5.40
2023-05-20T11:53:43.772Z,5.07
2023-05-20T11:56:31.858Z,5.18
2023-05-20T11:59:19.149Z,5.18
2023-05-20T12:02:07.016Z,5.28
2023-05-20T12:04:54.351Z,5.20
2023-05-20T12:07:41.768Z,5.43
2023-05-20T12:10:29.017Z,5.50
2023-05-20T12:13:16.280Z,5.07
2023-05-20T12:16:05.802Z,5.40
2023-05-20T12:18:53.222Z,5.13
2023-05-20T12:21:40.781Z,5.25
2023-05-20T12:24:27.988Z,5.03
2023-05-20T12:27:15.196Z,5.22
2023-05-20T12:30:02.730Z,5.13
2023-05-20T12:32:51.745Z,5.13
2023-05-20T12:35:40.164Z,5.20
2023-05-20T12:38:28.184Z,5.13
2023-05-20T12:41:15.526Z,4.93
2023-05-20T12:44:02.727Z,5.60
2023-05-20T12:46:50.055Z,6.18
2023-05-20T12:49:37.258Z,5.55
2023-05-20T12:52:24.734Z,5.30
2023-05-20T12:55:13.909Z,5.68
2023-05-20T12:58:01.094Z,5.80
2023-05-20T13:00:48.390Z,5.00
2023-05-20T13:03:35.755Z,5.10
2023-05-20T13:06:32.823Z,5.43
2023-05-20T13:09:20.232Z,5.70
2023-05-20T13:12:07.919Z,5.85
2023-05-20T13:14:55.068Z,5.60
2023-05-20T13:17:45.085Z,5.65
2023-05-20T13:20:32.386Z,6.05
2023-05-20T13:23:22.152Z,6.28
2023-05-20T13:26:10.057Z,5.78
2023-05-20T13:28:57.411Z,5.63
2023-05-20T13:31:44.599Z,5.60
2023-05-20T13:34:32.092Z,5.95
2023-05-20T13:37:19.351Z,5.40
2023-05-20T13:40:07.409Z,5.28
2023-05-20T13:42:54.786Z,5.30
2023-05-20T13:45:43.092Z,5.60
2023-05-20T13:48:30.541Z,5.50
2023-05-20T13:51:17.780Z,5.20
2023-05-20T13:54:06.567Z,5.07
2023-05-20T13:56:53.955Z,5.20
2023-05-20T13:59:41.266Z,5.38
2023-05-20T14:02:29.089Z,5.18
2023-05-20T14:05:17.015Z,4.97
2023-05-20T14:08:04.623Z,5.10
2023-05-20T14:10:55.964Z,4.55
2023-05-20T14:13:44.527Z,4.82
2023-05-20T14:16:32.506Z,5.05
2023-05-20T14:19:20.158Z,5.25
2023-05-20T14:22:07.510Z,5.28
2023-05-20T14:24:54.802Z,4.63
2023-05-20T14:27:42.134Z,4.90
2023-05-20T14:30:29.470Z,5.10
2023-05-20T14:33:16.645Z,4.57
2023-05-20T14:36:04.227Z,5.07
2023-05-20T14:38:51.486Z,4.93
2023-05-20T14:41:38.729Z,4.90
2023-05-20T14:44:26.007Z,5.10
2023-05-20T14:47:17.169Z,4.90
2023-05-20T14:50:04.722Z,4.78
2023-05-20T14:52:52.022Z,5.18
2023-05-20T14:55:39.794Z,5.00
2023-05-20T14:58:26.992Z,4.60
2023-05-20T15:01:14.233Z,4.97
2023-05-20T15:04:01.484Z,4.40
2023-05-20T15:06:48.801Z,4.95
2023-05-20T15:09:36.104Z,4.90
2023-05-20T15:12:23.331Z,4.60
2023-05-20T15:15:11.313Z,4.82
2023-05-20T15:17:58.581Z,4.57
2023-05-20T15:20:45.790Z,4.50
2023-05-20T15:23:32.956Z,4.80
2023-05-20T15:26:20.363Z,4.72
2023-05-20T15:29:07.555Z,4.85
2023-05-20T15:31:57.288Z,4.63
2023-05-20T15:34:44.495Z,4.80
2023-05-20T15:37:31.670Z,5.15
2023-05-20T15:40:20.302Z,5.22
2023-05-20T15:43:08.042Z,4.70
2023-05-20T15:45:57.744Z,4.70
2023-05-20T15:48:44.990Z,5.10
2023-05-20T15:51:32.203Z,4.43
2023-05-20T15:54:20.361Z,4.55
2023-05-20T15:57:07.671Z,4.55
2023-05-20T15:59:54.827Z,4.80
2023-05-20T16:02:42.909Z,4.63
2023-05-20T16:05:30.633Z,5.40
2023-05-20T16:08:17.996Z,5.22
2023-05-20T16:11:05.307Z,4.55
2023-05-20T16:13:52.562Z,5.05
2023-05-20T16:16:39.786Z,4.95
2023-05-20T16:19:30.460Z,5.20
2023-05-20T16:22:18.457Z,4.93
2023-05-20T16:25:06.061Z,4.72
2023-05-20T16:27:53.306Z,4.95
2023-05-20T16:30:40.774Z,5.03
2023-05-20T16:33:29.932Z,5.03
2023-05-20T16:36:19.725Z,5.45
2023-05-20T16:39:07.036Z,5.28
2023-05-20T16:41:54.397Z,5.30
2023-05-20T16:44:41.681Z,5.65
2023-05-20T16:47:28.970Z,5.63
2023-05-20T16:50:16.395Z,5.28
2023-05-20T16:53:05.175Z,5.97
2023-05-20T16:55:57.161Z,5.63
2023-05-20T16:58:44.433Z,5.05
2023-05-20T17:01:34.956Z,5.07
2023-05-20T17:04:22.587Z,5.00
2023-05-20T17:07:12.179Z,5.32
2023-05-20T17:09:59.826Z,4.85
2023-05-20T17:12:47.696Z,5.63
2023-05-20T17:15:37.152Z,5.07
2023-05-20T17:18:24.347Z,4.90
2023-05-20T17:21:13.946Z,4.78
2023-05-20T17:24:02.769Z,4.32
2023-05-20T17:26:50.170Z,4.90
2023-05-20T17:29:37.652Z,3.90
2023-05-20T17:32:24.796Z,4.55
2023-05-20T17:35:12.070Z,4.40
2023-05-20T17:37:59.370Z,4.20
2023-05-20T17:40:46.568Z,4.28
2023-05-20T17:43:33.771Z,4.30
2023-05-20T17:46:21.289Z,4.60
2023-05-20T17:49:08.779Z,4.47
2023-05-20T17:51:55.944Z,4.73
2023-05-20T17:54:43.132Z,4.10
2023-05-20T17:57:30.581Z,4.20
2023-05-20T18:00:21.582Z,4.03
2023-05-20T18:03:10.119Z,4.70
2023-05-20T18:05:58.068Z,4.03
2023-05-20T18:08:45.391Z,4.03
2023-05-20T18:11:33.463Z,3.90
2023-05-20T18:14:22.884Z,4.27
2023-05-20T18:17:10.127Z,3.80
2023-05-20T18:19:57.542Z,4.43
2023-05-20T18:22:47.920Z,4.03
2023-05-20T18:25:35.162Z,4.50
2023-05-20T18:28:22.550Z,4.23
2023-05-20T18:31:09.855Z,4.00
2023-05-20T18:33:57.095Z,4.83
2023-05-20T18:36:44.635Z,4.33
2023-05-20T18:39:31.797Z,4.50
2023-05-20T18:42:18.957Z,4.60
2023-05-20T18:45:06.915Z,4.40
2023-05-20T18:47:57.778Z,4.30
2023-05-20T18:50:45.176Z,5.13
2023-05-20T18:53:38.185Z,4.90
2023-05-20T18:56:26.819Z,4.90
2023-05-20T18:59:14.628Z,4.93
2023-05-20T19:02:02.318Z,4.53
2023-05-20T19:04:49.611Z,4.97
2023-05-20T19:07:37.551Z,4.87
2023-05-20T19:10:30.461Z,5.57
2023-05-20T19:13:17.735Z,5.27
2023-05-20T19:16:05.386Z,5.50
2023-05-20T19:18:55.416Z,4.73
2023-05-20T19:21:45.216Z,5.30
2023-05-20T19:24:35.376Z,5.03
2023-05-20T19:27:25.834Z,5.20
2023-05-20T19:30:14.215Z,5.00
2023-05-20T19:33:05.191Z,5.57
2023-05-20T19:35:52.444Z,5.40
2023-05-20T19:38:39.651Z,5.23
2023-05-20T19:41:27.419Z,5.60
2023-05-20T19:44:14.785Z,5.27
2023-05-20T19:47:02.193Z,5.37
2023-05-20T19:49:49.408Z,5.43
2023-05-20T19:52:36.762Z,5.47
2023-05-20T19:55:23.974Z,5.40
2023-05-20T19:58:11.099Z,5.50
2023-05-20T20:00:58.250Z,5.80
2023-05-20T20:03:46.164Z,5.70
2023-05-20T20:06:33.771Z,5.20
2023-05-20T20:09:21.235Z,5.30
2023-05-20T20:12:09.320Z,6.10
2023-05-20T20:14:57.027Z,6.17
2023-05-20T20:17:46.653Z,6.27
2023-05-20T20:20:40.014Z,5.83
2023-05-20T20:23:28.647Z,5.67
2023-05-20T20:26:15.886Z,6.30
2023-05-20T20:29:03.737Z,6.20
2023-05-20T20:31:51.617Z,5.97
2023-05-20T20:34:39.095Z,6.37
2023-05-20T20:37:27.419Z,6.17
2023-05-20T20:40:16.428Z,6.50
2023-05-20T20:43:04.884Z,6.43
2023-05-20T20:45:53.452Z,6.50
2023-05-20T20:48:45.915Z,6.57
2023-05-20T20:51:33.199Z,7.20
2023-05-20T20:54:20.718Z,7.27
2023-05-20T20:57:08.166Z,7.30
2023-05-20T20:59:57.865Z,7.40
2023-05-20T21:02:45.191Z,7.53
2023-05-20T21:05:32.662Z,7.90
2023-05-20T21:08:22.246Z,8.43
2023-05-20T21:11:09.450Z,7.60
2023-05-20T21:13:56.683Z,7.30
2023-05-20T21:16:43.823Z,7.97
2023-05-20T21:19:31.117Z,8.10
2023-05-20T21:22:18.275Z,7.90
2023-05-20T21:25:06.074Z,7.67
2023-05-20T21:27:53.444Z,8.13
2023-05-20T21:30:40.853Z,7.53
2023-05-20T21:33:28.321Z,7.67
2023-05-20T21:36:15.861Z,8.07
2023-05-20T21:39:03.424Z,7.93
2023-05-20T21:41:51.396Z,7.87
2023-05-20T21:44:38.657Z,7.93
2023-05-20T21:47:25.811Z,7.53
2023-05-20T21:50:13.308Z,7.87
2023-05-20T21:53:00.504Z,7.57
2023-05-20T21:55:47.743Z,7.07
2023-05-20T21:58:40.762Z,7.40
2023-05-20T22:01:28.100Z,7.03
2023-05-20T22:04:15.303Z,7.27
2023-05-20T22:07:02.949Z,7.50
2023-05-20T22:09:50.131Z,7.07
2023-05-20T22:12:40.535Z,7.70
2023-05-20T22:15:27.974Z,7.00
2023-05-20T22:18:15.211Z,7.50
2023-05-20T22:21:02.378Z,6.70
2023-05-20T22:23:49.571Z,7.17
2023-05-20T22:26:37.167Z,7.13
2023-05-20T22:29:24.331Z,7.20
2023-05-20T22:32:11.460Z,7.03
2023-05-20T22:34:58.976Z,7.03
2023-05-20T22:37:46.821Z,7.30
2023-05-20T22:40:34.739Z,7.00
2023-05-20T22:43:23.781Z,7.13
2023-05-20T22:46:11.010Z,7.20
2023-05-20T22:49:02.503Z,6.70
2023-05-20T22:51:50.330Z,7.33
2023-05-20T22:54:44.341Z,7.10
2023-05-20T22:57:50.559Z,6.30
2023-05-20T23:00:38.890Z,6.87
2023-05-20T23:03:31.952Z,6.37
2023-05-20T23:06:29.415Z,6.47
2023-05-20T23:09:19.029Z,6.60
2023-05-20T23:12:07.309Z,5.97
2023-05-20T23:19:20.764Z,6.47
2023-05-20T23:22:28.336Z,5.87
2023-05-20T23:25:15.733Z,5.60
2023-05-20T23:28:04.488Z,5.83
2023-05-20T23:30:59.298Z,5.70
2023-05-20T23:36:24.203Z,5.67
2023-05-20T23:39:20.816Z,5.53
2023-05-20T23:42:08.004Z,5.47
2023-05-20T23:44:55.230Z,5.70
2023-05-20T23:47:49.801Z,5.20
2023-05-20T23:50:37.360Z,5.43
2023-05-20T23:53:25.634Z,5.03
2023-05-20T23:56:18.955Z,5.67
2023-05-20T23:59:17.714Z,5.17
